createdAt,value
2019-02-04T00:02:18.864Z,23.13
2019-02-04T00:06:27.050Z,20.00
2019-02-04T00:10:35.224Z,25.30
2019-02-04T00:14:43.359Z,22.90
2019-02-04T00:18:51.505Z,25.63
2019-02-04T00:22:59.653Z,23.47
2019-02-04T00:27:07.809Z,30.13
2019-02-04T00:31:15.937Z,19.77
2019-02-04T00:35:24.057Z,22.33
2019-02-04T00:39:32.208Z,20.47
2019-02-04T00:43:40.330Z,20.83
2019-02-04T00:47:48.490Z,18.33
2019-02-04T00:51:56.613Z,18.10
2019-02-04T00:56:05.054Z,17.10
2019-02-04T01:00:17.346Z,16.63
2019-02-04T01:04:25.468Z,17.47
2019-02-04T01:08:33.602Z,17.50
2019-02-04T01:12:41.725Z,15.67
2019-02-04T01:16:49.849Z,15.13
2019-02-04T01:20:57.979Z,14.70
2019-02-04T01:25:06.449Z,15.43
2019-02-04T01:29:14.577Z,17.23
2019-02-04T01:33:22.706Z,15.57
2019-02-04T01:37:30.821Z,15.87
2019-02-04T01:41:38.958Z,18.87
2019-02-04T01:45:47.073Z,18.47
2019-02-04T01:49:55.180Z,16.03
2019-02-04T01:54:03.329Z,13.50
2019-02-04T01:58:11.481Z,13.90
2019-02-04T02:02:19.617Z,17.00
2019-02-04T02:06:27.745Z,16.83
2019-02-04T02:10:35.858Z,16.87
2019-02-04T02:14:43.977Z,22.23
2019-02-04T02:18:52.102Z,18.77
2019-02-04T02:23:00.233Z,16.13
2019-02-04T02:27:08.353Z,16.80
2019-02-04T02:31:16.497Z,21.13
2019-02-04T02:35:24.629Z,16.63
2019-02-04T02:39:32.757Z,16.27
2019-02-04T02:43:40.873Z,17.90
2019-02-04T02:47:49.011Z,16.33
2019-02-04T02:51:57.166Z,17.10
2019-02-04T02:56:05.361Z,17.30
2019-02-04T03:00:15.909Z,14.80
2019-02-04T03:04:24.076Z,23.33
2019-02-04T03:08:32.225Z,17.07
2019-02-04T03:12:40.353Z,17.07
2019-02-04T03:16:48.458Z,16.80
2019-02-04T03:20:56.590Z,15.83
2019-02-04T03:25:04.906Z,16.30
2019-02-04T03:29:13.025Z,18.80
2019-02-04T03:33:21.155Z,14.60
2019-02-04T03:37:29.253Z,18.17
2019-02-04T03:41:37.369Z,16.43
2019-02-04T03:45:45.486Z,17.30
2019-02-04T03:49:53.762Z,17.27
2019-02-04T03:54:01.890Z,18.90
2019-02-04T03:58:10.018Z,18.30
2019-02-04T04:02:18.130Z,12.33
2019-02-04T04:06:26.261Z,14.90
2019-02-04T04:10:34.449Z,18.60
2019-02-04T04:14:42.560Z,17.50
2019-02-04T04:18:53.361Z,14.67
2019-02-04T04:22:58.849Z,15.97
2019-02-04T04:27:06.999Z,20.27
2019-02-04T04:31:15.121Z,20.73
2019-02-04T04:35:23.251Z,16.90
2019-02-04T04:39:31.361Z,18.37
2019-02-04T04:43:39.490Z,18.30
2019-02-04T04:47:47.602Z,21.70
2019-02-04T04:51:55.736Z,22.43
2019-02-04T04:56:03.834Z,18.43
2019-02-04T05:00:14.809Z,17.20
2019-02-04T05:04:22.922Z,19.20
2019-02-04T05:08:31.041Z,17.43
2019-02-04T05:12:39.184Z,17.03
2019-02-04T05:16:47.330Z,14.37
2019-02-04T05:20:55.474Z,19.63
2019-02-04T05:25:03.809Z,16.70
2019-02-04T05:29:11.914Z,15.40
2019-02-04T05:33:20.035Z,18.43
2019-02-04T05:37:28.149Z,20.43
2019-02-04T05:41:36.294Z,21.00
2019-02-04T05:45:44.425Z,21.17
2019-02-04T05:49:52.533Z,17.20
2019-02-04T05:54:00.645Z,19.43
2019-02-04T05:58:08.774Z,20.80
2019-02-04T06:02:16.890Z,18.97
2019-02-04T06:06:25.017Z,18.77
2019-02-04T06:10:33.238Z,18.73
2019-02-04T06:14:41.365Z,18.80
2019-02-04T06:19:00.093Z,20.10
2019-02-04T06:22:57.650Z,17.80
2019-02-04T06:27:16.143Z,22.20
2019-02-04T06:31:24.377Z,20.23
2019-02-04T06:35:36.061Z,20.17
2019-02-04T06:39:44.488Z,22.90
2019-02-04T06:43:52.855Z,18.70
2019-02-04T06:48:01.194Z,14.47
2019-02-04T06:52:09.414Z,18.40
2019-02-04T06:56:18.360Z,25.07
2019-02-04T07:00:26.747Z,23.23
2019-02-04T07:04:41.360Z,21.10
2019-02-04T07:08:56.204Z,20.73
2019-02-04T07:13:04.425Z,19.97
2019-02-04T07:17:12.546Z,19.77
2019-02-04T07:21:21.180Z,21.27
2019-02-04T07:25:29.297Z,31.03
2019-02-04T07:29:37.615Z,36.10
2019-02-04T07:33:46.282Z,31.57
2019-02-04T07:38:00.449Z,29.67
2019-02-04T07:42:09.700Z,32.70
2019-02-04T07:46:17.950Z,29.00
2019-02-04T07:50:26.393Z,61.70
2019-02-04T07:54:34.652Z,48.07
2019-02-04T07:58:46.881Z,43.93
2019-02-04T08:02:55.207Z,28.90
2019-02-04T08:07:03.494Z,20.10
2019-02-04T08:11:11.823Z,18.17
2019-02-04T08:15:23.802Z,18.13
2019-02-04T08:19:32.427Z,15.63
2019-02-04T08:23:40.770Z,16.73
2019-02-04T08:27:49.005Z,16.27
2019-02-04T08:31:57.285Z,13.20
2019-02-04T08:36:05.450Z,15.23
2019-02-04T08:40:14.424Z,14.40
2019-02-04T08:44:22.774Z,17.07
2019-02-04T08:48:31.033Z,14.17
2019-02-04T08:52:39.257Z,16.50
2019-02-04T08:56:47.494Z,15.40
2019-02-04T09:00:55.770Z,14.20
2019-02-04T09:05:04.098Z,17.17
2019-02-04T09:09:12.225Z,13.63
2019-02-04T09:13:20.350Z,11.57
2019-02-04T09:17:28.719Z,13.07
2019-02-04T09:21:37.044Z,24.97
2019-02-04T09:25:45.381Z,14.00
2019-02-04T09:29:53.666Z,15.97
2019-02-04T09:34:01.846Z,10.23
2019-02-04T09:38:10.110Z,16.60
2019-02-04T09:42:18.307Z,16.63
2019-02-04T09:46:26.535Z,19.53
2019-02-04T09:50:34.840Z,14.13
2019-02-04T09:54:43.065Z,13.23
2019-02-04T09:58:51.190Z,11.17
2019-02-04T10:02:59.497Z,15.37
2019-02-04T10:07:07.847Z,11.37
2019-02-04T10:11:16.042Z,11.03
2019-02-04T10:15:26.425Z,15.47
2019-02-04T10:19:35.119Z,12.07
2019-02-04T10:23:43.440Z,16.00
2019-02-04T10:27:52.740Z,17.83
2019-02-04T10:32:01.094Z,9.97
2019-02-04T10:36:10.814Z,11.43
2019-02-04T10:40:20.830Z,14.67
2019-02-04T10:44:29.397Z,12.87
2019-02-04T10:48:38.044Z,15.23
2019-02-04T10:52:46.616Z,13.90
2019-02-04T10:56:54.793Z,13.30
2019-02-04T11:01:03.059Z,11.70
2019-02-04T11:05:14.209Z,11.00
2019-02-04T11:09:22.551Z,12.23
2019-02-04T11:13:30.600Z,11.83
2019-02-04T11:17:39.077Z,12.73
2019-02-04T11:21:47.259Z,9.17
2019-02-04T11:25:55.409Z,11.83
2019-02-04T11:30:03.742Z,8.40
2019-02-04T11:34:11.806Z,8.83
2019-02-04T11:38:19.954Z,9.50
2019-02-04T11:42:28.183Z,10.27
2019-02-04T11:46:36.279Z,9.50
2019-02-04T11:50:44.430Z,10.37
2019-02-04T11:54:52.550Z,10.00
2019-02-04T11:59:00.776Z,11.30
2019-02-04T12:03:10.153Z,11.07
2019-02-04T12:07:18.351Z,12.53
2019-02-04T12:11:26.676Z,8.80
2019-02-04T12:15:34.815Z,9.17
2019-02-04T12:19:42.932Z,8.40
2019-02-04T12:23:51.074Z,8.13
2019-02-04T12:27:59.197Z,8.47
2019-02-04T12:32:07.300Z,11.67
2019-02-04T12:36:15.459Z,10.73
2019-02-04T12:40:23.606Z,10.10
2019-02-04T12:44:31.845Z,9.27
2019-02-04T12:48:39.976Z,14.90
2019-02-04T12:52:48.098Z,12.30
2019-02-04T12:56:56.201Z,15.50
2019-02-04T13:01:05.063Z,12.77
2019-02-04T13:05:17.178Z,13.37
2019-02-04T13:09:25.649Z,6.83
2019-02-04T13:13:33.766Z,20.77
2019-02-04T13:17:41.879Z,20.30
2019-02-04T13:21:49.993Z,18.90
2019-02-04T13:25:58.215Z,10.27
2019-02-04T13:30:08.618Z,12.13
2019-02-04T13:34:16.730Z,15.97
2019-02-04T13:38:24.838Z,11.10
2019-02-04T13:42:32.966Z,6.67
2019-02-04T13:46:41.114Z,14.47
2019-02-04T13:50:49.250Z,7.47
2019-02-04T13:54:57.352Z,13.87
2019-02-04T13:59:05.473Z,12.07
2019-02-04T14:03:13.598Z,10.30
2019-02-04T14:07:21.714Z,7.77
2019-02-04T14:11:29.870Z,10.40
2019-02-04T14:15:38.182Z,8.77
2019-02-04T14:19:46.297Z,7.40
2019-02-04T14:23:54.414Z,7.23
2019-02-04T14:28:03.608Z,6.80
2019-02-04T14:32:10.705Z,10.60
2019-02-04T14:36:18.826Z,9.37
2019-02-04T14:40:27.667Z,7.90
2019-02-04T14:44:45.461Z,9.30
2019-02-04T14:51:11.559Z,11.00
2019-02-04T14:55:31.909Z,12.27
2019-02-04T14:59:50.565Z,9.03
2019-02-04T15:04:24.258Z,10.80
2019-02-04T15:08:46.507Z,9.07
2019-02-04T15:13:08.410Z,9.60
2019-02-04T15:18:21.969Z,14.80
2019-02-04T15:22:40.074Z,10.23
2019-02-04T15:27:05.856Z,13.80
2019-02-04T15:33:31.193Z,42.87
2019-02-04T15:37:52.456Z,14.40
2019-02-04T15:42:10.396Z,20.43
2019-02-04T15:46:36.620Z,15.20
2019-02-04T15:51:17.266Z,14.63
2019-02-04T15:55:25.382Z,10.97
2019-02-04T15:59:33.505Z,8.60
2019-02-04T16:03:41.618Z,13.37
2019-02-04T16:07:49.742Z,10.90
2019-02-04T16:11:57.849Z,8.63
2019-02-04T16:16:05.978Z,32.80
2019-02-04T16:20:16.933Z,14.43
2019-02-04T16:24:25.053Z,11.00
2019-02-04T16:28:33.173Z,9.17
2019-02-04T16:32:41.319Z,10.17
2019-02-04T16:36:49.448Z,10.13
2019-02-04T16:40:57.624Z,8.43
2019-02-04T16:45:06.045Z,7.57
2019-02-04T16:49:14.168Z,7.80
2019-02-04T16:53:22.281Z,6.73
2019-02-04T16:57:30.398Z,6.93
2019-02-04T17:01:38.539Z,9.37
2019-02-04T17:05:46.697Z,6.57
2019-02-04T17:09:54.850Z,11.57
2019-02-04T17:14:02.986Z,10.03
2019-02-04T17:18:11.103Z,7.73
2019-02-04T17:22:19.275Z,11.07
2019-02-04T17:26:27.399Z,9.43
2019-02-04T17:30:35.517Z,8.27
2019-02-04T17:34:43.634Z,16.13
2019-02-04T17:38:51.746Z,13.23
2019-02-04T17:42:59.867Z,13.13
2019-02-04T17:47:07.994Z,10.70
2019-02-04T17:51:16.129Z,11.63
2019-02-04T17:55:24.577Z,19.50
2019-02-04T17:59:32.733Z,26.63
2019-02-04T18:03:40.797Z,12.87
2019-02-04T18:07:48.905Z,17.27
2019-02-04T18:11:57.022Z,23.90
2019-02-04T18:16:05.301Z,22.47
2019-02-04T18:20:13.734Z,11.83
2019-02-04T18:24:21.842Z,18.17
2019-02-04T18:28:29.994Z,9.10
2019-02-04T18:32:38.160Z,10.20
2019-02-04T18:36:47.084Z,8.80
2019-02-04T18:40:54.559Z,8.53
2019-02-04T18:45:02.742Z,13.53
2019-02-04T18:49:10.871Z,10.23
2019-02-04T18:53:19.010Z,7.10
2019-02-04T18:57:27.136Z,9.03
2019-02-04T19:01:35.282Z,15.90
2019-02-04T19:05:43.436Z,14.40
2019-02-04T19:09:51.570Z,9.57
2019-02-04T19:13:59.677Z,8.50
2019-02-04T19:18:10.746Z,12.93
2019-02-04T19:22:18.957Z,11.77
2019-02-04T19:26:27.452Z,20.83
2019-02-04T19:30:38.854Z,29.70
2019-02-04T19:34:47.003Z,18.90
2019-02-04T19:38:55.174Z,19.33
2019-02-04T19:43:03.308Z,13.10
2019-02-04T19:47:11.482Z,10.77
2019-02-04T19:51:19.615Z,9.60
2019-02-04T19:55:27.747Z,12.03
2019-02-04T19:59:35.862Z,11.47
2019-02-04T20:03:43.996Z,9.70
2019-02-04T20:07:52.154Z,9.07
2019-02-04T20:12:00.278Z,9.10
2019-02-04T20:16:08.423Z,8.07
2019-02-04T20:20:16.553Z,9.83
2019-02-04T20:24:32.941Z,7.73
2019-02-04T20:28:32.821Z,12.00
2019-02-04T20:32:40.986Z,7.73
2019-02-04T20:36:49.154Z,13.10
2019-02-04T20:40:57.355Z,42.03
2019-02-04T20:45:06.171Z,9.80
2019-02-04T20:49:14.343Z,8.20
2019-02-04T20:53:22.534Z,7.60
2019-02-04T20:57:30.666Z,8.07
2019-02-04T21:01:38.818Z,8.53
2019-02-04T21:05:46.927Z,9.47
2019-02-04T21:09:55.059Z,8.97
2019-02-04T21:14:03.186Z,8.20
2019-02-04T21:18:11.323Z,11.43
2019-02-04T21:22:20.453Z,20.70
2019-02-04T21:26:28.578Z,13.50
2019-02-04T21:30:39.426Z,8.00
2019-02-04T21:34:47.582Z,12.63
2019-02-04T21:38:55.717Z,12.87
2019-02-04T21:43:04.157Z,15.77
2019-02-04T21:47:12.315Z,12.17
2019-02-04T21:51:21.470Z,16.17
2019-02-04T21:55:29.602Z,21.57
2019-02-04T21:59:37.758Z,15.53
2019-02-04T22:03:45.877Z,9.47
2019-02-04T22:07:54.018Z,7.87
2019-02-04T22:12:02.158Z,8.33
2019-02-04T22:16:10.303Z,7.83
2019-02-04T22:20:18.538Z,8.10
2019-02-04T22:24:26.662Z,7.53
2019-02-04T22:28:34.803Z,9.50
2019-02-04T22:32:42.958Z,7.90
2019-02-04T22:36:51.165Z,11.70
2019-02-04T22:40:59.299Z,8.33
2019-02-04T22:45:08.887Z,6.53
2019-02-04T22:49:17.030Z,9.93
2019-02-04T22:53:25.178Z,9.63
2019-02-04T22:57:33.311Z,8.53
2019-02-04T23:01:46.378Z,9.67
2019-02-04T23:05:54.578Z,7.47
2019-02-04T23:10:02.755Z,11.07
2019-02-04T23:14:10.904Z,10.00
2019-02-04T23:18:19.075Z,16.60
2019-02-04T23:22:27.254Z,7.77
2019-02-04T23:26:36.416Z,12.30
2019-02-04T23:30:44.552Z,9.70
2019-02-04T23:34:52.775Z,10.00
2019-02-04T23:39:00.842Z,8.50
2019-02-04T23:43:09.036Z,23.47
2019-02-04T23:47:17.186Z,13.03
2019-02-04T23:51:25.356Z,26.03
2019-02-04T23:55:33.559Z,18.57
2019-02-04T23:59:41.703Z,8.60
